Time;durP1;ratioP1;P1;durP2;ratioP2;P2;SDS_P1;SDS_P2;PMS_P1;PMS_P2;Temp;Humidity;BMP_temperature;BMP_pressure;BME280_temperature;BME280_humidity;BME280_pressure;Samples;Min_cycle;Max_cycle;Signal;HPM_P1;HPM_P2
2021/09/07 00:02:05;;;;;;;;;;;;;;;12.32;69.85;98989.97;1607479;88;24822;-85
2021/09/07 00:04:33;;;;;;;;;;;;;;;12.30;69.93;98989.22;1610226;87;21938;-84
2021/09/07 00:06:59;;;;;;;;;;;;;;;12.32;70.01;98985.19;1609142;87;26620;-85
2021/09/07 00:09:26;;;;;;;;;;;;;;;12.33;70.08;98989.50;1602996;89;20261;-85
2021/09/07 00:11:54;;;;;;;;;;;;;;;12.33;70.14;98981.63;1608576;87;20243;-85
2021/09/07 00:14:25;;;;;;;;;;;;;;;12.33;70.22;98976.38;1608219;88;24885;-85
2021/09/07 00:16:51;;;;;;;;;;;;;;;12.31;70.30;98975.16;1610563;87;21968;-86
2021/09/07 00:19:17;;;;;;;;;;;;;;;12.28;70.37;98971.41;1608168;89;26145;-85
2021/09/07 00:21:43;;;;;;;;;;;;;;;12.23;70.42;98973.52;1610490;87;25350;-85
2021/09/07 00:24:09;;;;;;;;;;;;;;;12.21;70.50;98971.95;1608026;88;20321;-85
2021/09/07 00:26:35;;;;;;;;;;;;;;;12.20;70.58;98966.33;1610102;88;24810;-85
2021/09/07 00:29:02;;;;;;;;;;;;;;;12.16;70.66;98963.09;1608750;87;20325;-85
2021/09/07 00:31:28;;;;;;;;;;;;;;;12.12;70.74;98970.78;1608581;87;26052;-85
2021/09/07 00:33:54;;;;;;;;;;;;;;;12.07;70.82;98965.00;1608101;89;24645;-85
2021/09/07 00:36:22;;;;;;;;;;;;;;;12.08;70.90;98966.22;1608414;87;20281;-85
2021/09/07 00:38:48;;;;;;;;;;;;;;;12.07;70.99;98956.66;1608242;87;24867;-86
2021/09/07 00:41:14;;;;;;;;;;;;;;;12.08;71.07;98967.53;1609212;87;21925;-84
2021/09/07 00:43:40;;;;;;;;;;;;;;;12.10;71.18;98954.32;1586835;88;21081;-85
2021/09/07 00:46:06;;;;;;;;;;;;;;;12.10;71.23;98955.63;1589043;89;24527;-85
2021/09/07 00:48:36;;;;;;;;;;;;;;;12.12;71.34;98956.34;1607117;89;20850;-85
2021/09/07 00:51:02;;;;;;;;;;;;;;;12.08;71.42;98957.50;1608294;89;24809;-85
2021/09/07 00:53:30;;;;;;;;;;;;;;;12.12;71.51;98955.03;1608018;87;22606;-85
2021/09/07 00:55:57;;;;;;;;;;;;;;;12.14;71.59;98954.00;1585122;87;26866;-85
2021/09/07 00:58:25;;;;;;;;;;;;;;;12.13;71.69;98951.00;1605054;87;24465;-86
2021/09/07 01:00:51;;;;;;;;;;;;;;;12.15;71.76;98957.00;1585828;88;20235;-86
2021/09/07 01:03:19;;;;;;;;;;;;;;;12.19;71.85;98955.47;1584634;90;24727;-86
2021/09/07 01:05:47;;;;;;;;;;;;;;;12.20;71.91;98959.30;1585528;89;22176;-85
2021/09/07 01:08:14;;;;;;;;;;;;;;;12.23;72.00;98956.92;1631892;87;26028;-85
2021/09/07 01:10:42;;;;;;;;;;;;;;;12.25;72.05;98952.42;1626467;87;24462;-85
2021/09/07 01:13:09;;;;;;;;;;;;;;;12.30;72.12;98951.64;1630701;86;20281;-86
2021/09/07 01:15:40;;;;;;;;;;;;;;;12.34;72.19;98944.75;1628523;87;25398;-86
2021/09/07 01:18:10;;;;;;;;;;;;;;;12.36;72.24;98945.97;1620872;87;22161;-85
2021/09/07 01:20:36;;;;;;;;;;;;;;;12.36;72.28;98940.72;1623867;87;26191;-86
2021/09/07 01:23:02;;;;;;;;;;;;;;;12.38;72.31;98944.91;1627959;87;24464;-86
2021/09/07 01:25:28;;;;;;;;;;;;;;;12.37;72.34;98943.72;1624959;87;20223;-86
2021/09/07 01:27:54;;;;;;;;;;;;;;;12.36;72.39;98939.41;1629280;87;24827;-87
2021/09/07 01:30:24;;;;;;;;;;;;;;;12.37;72.46;98939.31;1632908;87;21919;-86
2021/09/07 01:32:49;;;;;;;;;;;;;;;12.37;72.50;98937.16;1627222;87;26789;-86
2021/09/07 01:35:15;;;;;;;;;;;;;;;12.36;72.55;98938.94;1634423;87;24395;-86
2021/09/07 01:37:42;;;;;;;;;;;;;;;12.41;72.60;98938.14;1633967;87;20513;-86
2021/09/07 01:40:09;;;;;;;;;;;;;;;12.42;72.62;98933.73;1629545;87;25382;-86
2021/09/07 01:42:41;;;;;;;;;;;;;;;12.40;72.64;98943.49;1628626;87;22046;-86
2021/09/07 01:45:07;;;;;;;;;;;;;;;12.38;72.67;98938.84;1628269;87;26065;-86
2021/09/07 01:47:33;;;;;;;;;;;;;;;12.35;72.69;98938.56;1628008;87;24427;-86
2021/09/07 01:49:59;;;;;;;;;;;;;;;12.33;72.72;98937.01;1633551;87;20486;-86
2021/09/07 01:52:29;;;;;;;;;;;;;;;12.36;72.78;98942.03;1630472;87;24960;-86
2021/09/07 01:54:56;;;;;;;;;;;;;;;12.39;72.81;98943.12;1627809;87;22274;-86
2021/09/07 01:57:22;;;;;;;;;;;;;;;12.41;72.85;98946.48;1629081;87;25993;-86
2021/09/07 01:59:48;;;;;;;;;;;;;;;12.39;72.88;98944.43;1606542;87;20300;-86
2021/09/07 02:02:16;;;;;;;;;;;;;;;12.35;72.89;98939.88;1625253;87;20201;-86
2021/09/07 02:04:46;;;;;;;;;;;;;;;12.31;72.93;98941.05;1623913;87;20758;-86
2021/09/07 02:07:12;;;;;;;;;;;;;;;12.25;72.94;98939.30;1628700;87;22924;-86
2021/09/07 02:09:38;;;;;;;;;;;;;;;12.22;72.99;98938.22;1632070;86;26200;-84
2021/09/07 02:12:08;;;;;;;;;;;;;;;12.26;73.05;98936.58;1630832;86;21120;-84
2021/09/07 02:14:34;;;;;;;;;;;;;;;12.31;73.10;98941.52;1609372;87;20248;-84
2021/09/07 02:17:00;;;;;;;;;;;;;;;12.28;73.15;98935.98;1637020;86;24811;-84
2021/09/07 02:19:26;;;;;;;;;;;;;;;12.32;73.20;98930.08;1633548;86;22144;-84
2021/09/07 02:21:52;;;;;;;;;;;;;;;12.30;73.23;98930.17;1634442;86;21281;-85
2021/09/07 02:24:18;;;;;;;;;;;;;;;12.35;73.26;98926.75;1635614;86;20758;-85
2021/09/07 02:26:45;;;;;;;;;;;;;;;12.40;73.29;98927.74;1634060;86;20214;-85
2021/09/07 02:29:11;;;;;;;;;;;;;;;12.46;73.33;98929.95;1633049;87;24831;-85
2021/09/07 02:31:37;;;;;;;;;;;;;;;12.48;73.34;98922.81;1636832;86;21958;-85
2021/09/07 02:34:09;;;;;;;;;;;;;;;12.50;73.37;98929.62;1632886;86;25980;-85
2021/09/07 02:36:31;;;;;;;;;;;;;;;12.52;73.38;98927.73;1633521;86;24467;-85
2021/09/07 02:38:58;;;;;;;;;;;;;;;12.52;73.40;98922.48;1634620;86;20265;-85
2021/09/07 02:41:24;;;;;;;;;;;;;;;12.51;73.43;98925.21;1629597;86;24829;-85
2021/09/07 02:43:50;;;;;;;;;;;;;;;12.48;73.45;98920.19;1629979;86;22045;-87
2021/09/07 02:46:16;;;;;;;;;;;;;;;12.48;73.47;98921.03;1596008;87;25957;-87
2021/09/07 02:48:42;;;;;;;;;;;;;;;12.55;73.51;98917.48;1629275;87;24396;-87
2021/09/07 02:51:10;;;;;;;;;;;;;;;12.58;73.53;98919.44;1631399;86;20224;-87
2021/09/07 02:53:40;;;;;;;;;;;;;;;12.59;73.52;98920.28;1644815;84;24915;-87
2021/09/07 02:56:09;;;;;;;;;;;;;;;12.60;73.54;98913.25;1630334;86;22077;-86
2021/09/07 02:58:35;;;;;;;;;;;;;;;12.59;73.54;98916.34;1622377;86;26659;-87
2021/09/07 03:01:09;;;;;;;;;;;;;;;12.58;73.53;98917.28;1623946;86;20241;-86
2021/09/07 03:03:36;;;;;;;;;;;;;;;12.57;73.53;98916.91;1619072;86;20254;-86
2021/09/07 03:06:03;;;;;;;;;;;;;;;12.55;73.52;98914.86;1624093;86;25416;-86
2021/09/07 03:08:29;;;;;;;;;;;;;;;12.56;73.51;98917.38;1653782;85;22095;-87
2021/09/07 03:10:56;;;;;;;;;;;;;;;12.47;73.52;98894.41;1660628;85;25946;-87
2021/09/07 03:13:22;;;;;;;;;;;;;;;12.54;73.53;98912.73;1627533;87;24473;-86
2021/09/07 03:15:48;;;;;;;;;;;;;;;12.54;73.55;98915.36;1661676;86;20277;-86
2021/09/07 03:18:14;;;;;;;;;;;;;;;12.55;73.56;98914.86;1641599;86;24910;-86
2021/09/07 03:20:42;;;;;;;;;;;;;;;12.55;73.57;98913.07;1633541;86;37239;-86
2021/09/07 03:23:08;;;;;;;;;;;;;;;12.54;73.58;98908.80;1632848;86;26888;-86
2021/09/07 03:25:34;;;;;;;;;;;;;;;12.52;73.62;98909.83;1636227;86;20298;-86
2021/09/07 03:28:06;;;;;;;;;;;;;;;12.52;73.64;98908.52;1643980;86;20365;-85
2021/09/07 03:30:32;;;;;;;;;;;;;;;12.52;73.65;98909.83;1638332;86;24752;-86
2021/09/07 03:33:04;;;;;;;;;;;;;;;12.51;73.68;98910.30;1646435;86;21945;-85
2021/09/07 03:35:31;;;;;;;;;;;;;;;12.50;73.68;98909.09;1624300;88;26123;-86
2021/09/07 03:37:58;;;;;;;;;;;;;;;12.49;73.69;98908.75;1662042;85;24408;-86
2021/09/07 03:40:24;;;;;;;;;;;;;;;12.50;73.72;98907.30;1626634;87;20250;-85
2021/09/07 03:42:50;;;;;;;;;;;;;;;12.48;73.75;98905.28;1631504;87;24757;-85
2021/09/07 03:45:25;;;;;;;;;;;;;;;12.48;73.74;98902.66;1628701;87;21987;-85
2021/09/07 03:47:54;;;;;;;;;;;;;;;12.43;73.75;98903.45;1630523;86;26062;-86
2021/09/07 03:50:20;;;;;;;;;;;;;;;12.44;73.76;98906.89;1627246;86;24556;-86
2021/09/07 03:52:46;;;;;;;;;;;;;;;12.46;73.80;98908.94;1630812;86;20730;-86
2021/09/07 03:55:13;;;;;;;;;;;;;;;12.46;73.82;98908.48;1629630;87;24843;-86
2021/09/07 03:57:39;;;;;;;;;;;;;;;12.48;73.89;98904.44;1631759;87;22595;-85
2021/09/07 04:00:08;;;;;;;;;;;;;;;12.49;73.94;98901.69;1625010;87;26047;-85
2021/09/07 04:02:34;;;;;;;;;;;;;;;12.50;73.97;98903.37;1645003;86;24674;-85
2021/09/07 04:05:00;;;;;;;;;;;;;;;12.48;74.00;98901.34;1628438;86;20285;-86
2021/09/07 04:07:26;;;;;;;;;;;;;;;12.48;74.03;98902.66;1628967;86;21156;-86
2021/09/07 04:09:52;;;;;;;;;;;;;;;12.45;74.06;98901.55;1644294;86;22047;-86
2021/09/07 04:12:18;;;;;;;;;;;;;;;12.43;74.09;98899.52;1643178;86;26242;-86
2021/09/07 04:14:44;;;;;;;;;;;;;;;12.41;74.11;98893.99;1639463;86;24535;-86
2021/09/07 04:17:10;;;;;;;;;;;;;;;12.40;74.13;98898.87;1647996;86;20309;-86
2021/09/07 04:19:36;;;;;;;;;;;;;;;12.41;74.16;98899.24;1638219;86;25384;-86
2021/09/07 04:22:03;;;;;;;;;;;;;;;12.41;74.19;98897.93;1643694;86;20290;-86
2021/09/07 04:24:29;;;;;;;;;;;;;;;12.43;74.23;98899.98;1645144;86;26030;-86
2021/09/07 04:26:55;;;;;;;;;;;;;;;12.45;74.27;98905.48;1646227;86;20846;-86
2021/09/07 04:29:21;;;;;;;;;;;;;;;12.48;74.32;98901.81;1642186;86;20259;-86
2021/09/07 04:31:47;;;;;;;;;;;;;;;12.42;74.37;98887.80;1644178;86;24847;-85
2021/09/07 04:34:13;;;;;;;;;;;;;;;12.51;74.40;98898.95;1626892;86;21951;-85
2021/09/07 04:36:39;;;;;;;;;;;;;;;12.55;74.42;98901.73;1641364;87;20983;-85
2021/09/07 04:39:05;;;;;;;;;;;;;;;12.55;74.47;98903.04;1643971;86;24396;-85
2021/09/07 04:41:31;;;;;;;;;;;;;;;12.55;74.51;98904.35;1647068;86;20808;-85
2021/09/07 04:43:57;;;;;;;;;;;;;;;12.55;74.53;98908.29;1650127;86;20739;-85
2021/09/07 04:46:23;;;;;;;;;;;;;;;12.56;74.56;98903.41;1645966;86;21958;-85
2021/09/07 04:48:53;;;;;;;;;;;;;;;12.57;74.59;98904.63;1644147;86;26026;-84
2021/09/07 04:51:17;;;;;;;;;;;;;;;12.59;74.62;98905.84;1641626;86;24433;-86
2021/09/07 04:53:43;;;;;;;;;;;;;;;12.60;74.67;98902.23;1639300;86;20262;-86
2021/09/07 04:56:09;;;;;;;;;;;;;;;12.62;74.68;98906.92;1638569;86;20233;-86
2021/09/07 04:58:35;;;;;;;;;;;;;;;12.63;74.71;98909.92;1643176;87;22267;-86
2021/09/07 05:01:01;;;;;;;;;;;;;;;12.66;74.73;98913.63;1642347;86;21196;-85
2021/09/07 05:03:31;;;;;;;;;;;;;;;12.68;74.78;98920.94;1646696;86;24474;-85
2021/09/07 05:05:55;;;;;;;;;;;;;;;12.68;74.82;98918.31;1643488;86;20266;-85
2021/09/07 05:08:21;;;;;;;;;;;;;;;12.70;74.84;98919.05;1645812;86;20229;-86
2021/09/07 05:10:47;;;;;;;;;;;;;;;12.73;74.87;98918.82;1632193;87;20926;-86
2021/09/07 05:13:13;;;;;;;;;;;;;;;12.78;74.90;98915.39;1652722;85;21094;-85
2021/09/07 05:15:39;;;;;;;;;;;;;;;12.81;74.93;98913.88;1637074;86;20916;-85
2021/09/07 05:18:05;;;;;;;;;;;;;;;12.84;74.96;98916.27;1652462;86;20249;-85
2021/09/07 05:20:31;;;;;;;;;;;;;;;12.87;74.99;98919.98;1651902;86;24727;-85
2021/09/07 05:22:57;;;;;;;;;;;;;;;12.91;75.02;98910.95;1653663;86;20348;-85
2021/09/07 05:25:23;;;;;;;;;;;;;;;12.99;75.05;98915.16;1652214;86;26025;-86
2021/09/07 05:27:53;;;;;;;;;;;;;;;13.05;75.09;98915.20;1652195;86;24481;-85
2021/09/07 05:30:19;;;;;;;;;;;;;;;13.15;75.14;98916.71;1649221;85;20558;-85
2021/09/07 05:32:45;;;;;;;;;;;;;;;13.22;75.18;98916.16;1652008;86;24733;-86
2021/09/07 05:35:11;;;;;;;;;;;;;;;13.25;75.22;98917.27;1652236;86;20485;-85
2021/09/07 05:37:39;;;;;;;;;;;;;;;13.33;75.24;98921.95;1651176;86;21609;-85
2021/09/07 05:40:07;;;;;;;;;;;;;;;13.42;75.28;98915.20;1651894;86;24512;-86
2021/09/07 05:42:33;;;;;;;;;;;;;;;13.48;75.30;98924.77;1650559;86;20562;-85
2021/09/07 05:44:59;;;;;;;;;;;;;;;13.54;75.34;98915.11;1650515;85;24754;-86
2021/09/07 05:47:25;;;;;;;;;;;;;;;13.60;75.36;98919.08;1653153;85;20975;-86
2021/09/07 05:49:52;;;;;;;;;;;;;;;13.64;75.37;98917.89;1652340;86;26150;-87
2021/09/07 05:52:18;;;;;;;;;;;;;;;13.68;75.36;98916.25;1652076;85;24142;-86
2021/09/07 05:54:44;;;;;;;;;;;;;;;13.73;75.37;98910.17;1652805;85;20347;-86
2021/09/07 05:57:10;;;;;;;;;;;;;;;13.77;75.42;98915.55;1652188;86;24750;-86
2021/09/07 05:59:36;;;;;;;;;;;;;;;13.81;75.44;98918.30;1652725;86;22154;-86
2021/09/07 06:02:08;;;;;;;;;;;;;;;13.89;75.46;98917.73;1651827;86;21114;-86
2021/09/07 06:04:34;;;;;;;;;;;;;;;13.95;75.47;98918.59;1652897;86;24612;-86
2021/09/07 06:07:09;;;;;;;;;;;;;;;13.95;75.48;98915.97;1651398;86;20292;-86
2021/09/07 06:09:35;;;;;;;;;;;;;;;14.04;75.50;98919.67;1653721;85;25412;-87
2021/09/07 06:12:01;;;;;;;;;;;;;;;14.08;75.50;98925.06;1621643;88;20236;-86
2021/09/07 06:14:27;;;;;;;;;;;;;;;14.09;75.50;98914.90;1623787;88;25951;-87
2021/09/07 06:17:03;;;;;;;;;;;;;;;14.15;75.48;98917.91;1618726;87;20584;-86
2021/09/07 06:19:29;;;;;;;;;;;;;;;14.22;75.53;98926.18;1623298;88;20238;-86
2021/09/07 06:21:55;;;;;;;;;;;;;;;14.22;75.53;98913.86;1628507;85;20243;-86
2021/09/07 06:24:21;;;;;;;;;;;;;;;14.38;75.53;98930.66;1635389;85;21964;-86
2021/09/07 06:26:47;;;;;;;;;;;;;;;14.40;75.54;98930.03;1635824;85;21031;-86
2021/09/07 06:29:13;;;;;;;;;;;;;;;14.46;75.55;98932.67;1644210;86;24461;-86
2021/09/07 06:31:39;;;;;;;;;;;;;;;14.52;75.52;98925.61;1640139;86;20601;-87
2021/09/07 06:34:05;;;;;;;;;;;;;;;14.60;75.52;98925.39;1633800;86;20251;-87
2021/09/07 06:36:31;;;;;;;;;;;;;;;14.65;75.51;98924.55;1638907;86;22700;-86
2021/09/07 06:38:58;;;;;;;;;;;;;;;14.74;75.55;98930.88;1627694;86;20957;-86
2021/09/07 06:41:24;;;;;;;;;;;;;;;14.81;75.54;98926.81;1636203;86;24503;-86
2021/09/07 06:43:50;;;;;;;;;;;;;;;14.90;75.55;98929.18;1634988;86;20481;-86
2021/09/07 06:46:16;;;;;;;;;;;;;;;14.98;75.55;98929.42;1642488;86;20861;-86
2021/09/07 06:48:42;;;;;;;;;;;;;;;15.00;75.52;98935.42;1639517;86;20376;-85
2021/09/07 06:51:08;;;;;;;;;;;;;;;15.07;75.52;98938.74;1637540;86;21067;-86
2021/09/07 06:53:43;;;;;;;;;;;;;;;15.16;75.48;98941.62;1636467;86;24519;-86
2021/09/07 06:56:09;;;;;;;;;;;;;;;15.20;75.44;98940.40;1640542;86;20264;-86
2021/09/07 06:58:35;;;;;;;;;;;;;;;15.28;75.42;98948.52;1640331;87;20685;-86
2021/09/07 07:01:01;;;;;;;;;;;;;;;15.32;75.41;98945.53;1638787;87;22109;-85
2021/09/07 07:03:29;;;;;;;;;;;;;;;15.39;75.36;98949.80;1632247;86;21004;-85
2021/09/07 07:05:55;;;;;;;;;;;;;;;15.47;75.36;98947.39;1627398;86;24476;-84
2021/09/07 07:08:24;;;;;;;;;;;;;;;15.57;75.31;98947.02;1624356;86;20267;-84
2021/09/07 07:10:50;;;;;;;;;;;;;;;15.65;75.25;98947.72;1585642;89;25036;-84
2021/09/07 07:13:17;;;;;;;;;;;;;;;15.73;75.22;98945.27;1596191;88;22035;-84
2021/09/07 07:15:44;;;;;;;;;;;;;;;15.82;75.25;98952.42;1596752;89;26708;-84
2021/09/07 07:18:10;;;;;;;;;;;;;;;15.92;75.23;98948.08;1624608;86;24500;-84
2021/09/07 07:20:36;;;;;;;;;;;;;;;16.01;75.24;98944.66;1601739;88;20395;-86
2021/09/07 07:23:02;;;;;;;;;;;;;;;16.11;75.19;98940.75;1585782;90;24748;-85
2021/09/07 07:25:28;;;;;;;;;;;;;;;16.20;75.19;98942.13;1597325;87;20852;-85
2021/09/07 07:27:54;;;;;;;;;;;;;;;16.30;75.09;98945.69;1602092;89;26053;-85
2021/09/07 07:30:22;;;;;;;;;;;;;;;16.36;74.97;98946.97;1602260;87;24402;-85
2021/09/07 07:32:49;;;;;;;;;;;;;;;16.46;74.96;98948.33;1598276;89;20175;-86
2021/09/07 07:35:15;;;;;;;;;;;;;;;16.51;74.87;98945.65;1599465;89;24825;-85
2021/09/07 07:37:41;;;;;;;;;;;;;;;16.61;74.77;98953.64;1598896;87;22047;-85
2021/09/07 07:40:07;;;;;;;;;;;;;;;16.71;74.70;98959.32;1599514;89;21092;-85
2021/09/07 07:42:34;;;;;;;;;;;;;;;16.80;74.58;98964.80;1600313;87;24391;-85
2021/09/07 07:45:00;;;;;;;;;;;;;;;16.87;74.53;98966.75;1599017;89;20505;-86
2021/09/07 07:47:33;;;;;;;;;;;;;;;16.93;74.47;98964.06;1595540;87;25406;-85
2021/09/07 07:49:58;;;;;;;;;;;;;;;16.95;74.35;98972.70;1596443;87;23078;-85
2021/09/07 07:52:24;;;;;;;;;;;;;;;17.02;74.29;98969.38;1601378;89;20964;-85
2021/09/07 07:54:52;;;;;;;;;;;;;;;17.08;74.25;98974.13;1597240;88;20330;-83
2021/09/07 07:57:19;;;;;;;;;;;;;;;17.17;74.22;98974.30;1600112;87;20422;-84
2021/09/07 07:59:45;;;;;;;;;;;;;;;17.24;74.16;98978.09;1597593;89;24754;-84
2021/09/07 08:02:12;;;;;;;;;;;;;;;17.26;74.13;98977.45;1599243;89;22078;-84
2021/09/07 08:04:43;;;;;;;;;;;;;;;17.32;74.02;98979.55;1602172;87;25957;-84
2021/09/07 08:07:09;;;;;;;;;;;;;;;17.38;73.94;98981.17;1592970;89;24529;-85
2021/09/07 08:09:40;;;;;;;;;;;;;;;17.43;73.83;98982.09;1614965;86;20481;-85
2021/09/07 08:12:03;;;;;;;;;;;;;;;17.46;73.67;98986.61;1645418;85;24746;-84
2021/09/07 08:14:29;;;;;;;;;;;;;;;17.54;73.60;98991.23;1647830;85;22138;-84
2021/09/07 08:16:55;;;;;;;;;;;;;;;17.58;73.47;98987.32;1642665;86;21027;-84
2021/09/07 08:19:21;;;;;;;;;;;;;;;17.66;73.35;98995.46;1654781;85;24683;-84
2021/09/07 08:21:47;;;;;;;;;;;;;;;17.74;73.29;98988.97;1645734;85;21118;-84
2021/09/07 08:24:13;;;;;;;;;;;;;;;17.85;73.23;98994.61;1646017;85;24732;-85
2021/09/07 08:26:39;;;;;;;;;;;;;;;17.92;73.19;98991.77;1648978;85;20947;-84
2021/09/07 08:29:05;;;;;;;;;;;;;;;18.02;73.12;99001.03;1641417;85;21057;-85
2021/09/07 08:31:31;;;;;;;;;;;;;;;18.11;73.04;98996.23;1646508;85;24517;-84
2021/09/07 08:33:57;;;;;;;;;;;;;;;18.17;72.91;98999.12;1642702;86;20554;-84
2021/09/07 08:36:23;;;;;;;;;;;;;;;18.24;72.80;98999.41;1640927;86;24813;-84
2021/09/07 08:38:49;;;;;;;;;;;;;;;18.28;72.65;99007.41;1640346;86;20253;-85
2021/09/07 08:41:16;;;;;;;;;;;;;;;18.33;72.56;99011.31;1644160;86;26037;-85
2021/09/07 08:43:44;;;;;;;;;;;;;;;18.34;72.42;98998.41;1648746;85;24475;-85
2021/09/07 08:46:10;;;;;;;;;;;;;;;18.40;72.36;99004.96;1647979;85;20461;-85
2021/09/07 08:48:37;;;;;;;;;;;;;;;18.41;72.21;99002.66;1643500;85;20350;-85
2021/09/07 08:51:04;;;;;;;;;;;;;;;18.47;72.08;98998.12;1642615;86;22069;-85
2021/09/07 08:53:32;;;;;;;;;;;;;;;18.56;72.02;99003.91;1604917;88;25662;-85
2021/09/07 08:55:59;;;;;;;;;;;;;;;18.68;71.92;99004.09;1618844;87;24399;-85
2021/09/07 08:58:25;;;;;;;;;;;;;;;18.82;71.85;99010.73;1660358;85;20472;-85
2021/09/07 09:00:51;;;;;;;;;;;;;;;18.96;71.77;99012.09;1620275;87;24835;-84
2021/09/07 09:03:18;;;;;;;;;;;;;;;19.11;71.71;99008.80;1659649;85;22046;-85
2021/09/07 09:05:47;;;;;;;;;;;;;;;19.22;71.62;99012.59;1647683;86;25979;-85
2021/09/07 09:08:16;;;;;;;;;;;;;;;19.37;71.44;99013.41;1613894;87;24498;-85
2021/09/07 09:10:43;;;;;;;;;;;;;;;19.50;71.30;99009.47;1654651;86;20481;-84
2021/09/07 09:13:14;;;;;;;;;;;;;;;19.60;71.00;99013.38;1636052;85;24107;-84
2021/09/07 09:15:40;;;;;;;;;;;;;;;19.69;70.73;99010.34;1647567;86;22175;-85
2021/09/07 09:18:10;;;;;;;;;;;;;;;19.78;70.49;99010.26;1663327;84;26066;-85
2021/09/07 09:20:41;;;;;;;;;;;;;;;19.80;70.14;99009.59;1661454;85;24533;-85
2021/09/07 09:23:05;;;;;;;;;;;;;;;19.83;69.86;99009.80;1624502;87;20359;-85
2021/09/07 09:25:41;;;;;;;;;;;;;;;19.87;69.61;99009.83;1624706;86;24820;-85
2021/09/07 09:28:14;;;;;;;;;;;;;;;19.91;69.36;99009.89;1629783;87;21856;-85
2021/09/07 09:30:45;;;;;;;;;;;;;;;19.92;69.10;99008.88;1627025;86;25571;-84
2021/09/07 09:33:13;;;;;;;;;;;;;;;19.90;68.84;99010.38;1627659;87;24455;-84
2021/09/07 09:35:44;;;;;;;;;;;;;;;19.88;68.63;99010.17;1654605;85;20560;-85
2021/09/07 09:38:10;;;;;;;;;;;;;;;19.92;68.46;99014.19;1655910;86;24752;-85
2021/09/07 09:40:36;;;;;;;;;;;;;;;19.94;68.22;99012.23;1653826;85;22110;-85
2021/09/07 09:43:21;;;;;;;;;;;;;;;19.99;68.09;99007.30;1656498;86;25998;-85
2021/09/07 09:45:47;;;;;;;;;;;;;;;20.04;67.96;99001.86;1654855;86;24744;-85
2021/09/07 09:48:27;;;;;;;;;;;;;;;20.10;67.77;99008.39;1654624;86;20227;-85
2021/09/07 09:50:54;;;;;;;;;;;;;;;20.14;67.56;98999.60;1654730;86;24974;-84
2021/09/07 09:53:21;;;;;;;;;;;;;;;20.17;67.38;99001.48;1655505;86;22205;-84
2021/09/07 09:55:50;;;;;;;;;;;;;;;20.23;67.25;99000.87;1654357;85;26769;-85
2021/09/07 09:58:17;;;;;;;;;;;;;;;20.29;67.12;99000.22;1653846;86;24564;-84
2021/09/07 10:00:46;;;;;;;;;;;;;;;20.24;66.89;98990.55;1654579;85;20532;-85
2021/09/07 10:03:13;;;;;;;;;;;;;;;20.33;66.69;99000.31;1654738;85;24744;-84
2021/09/07 10:05:40;;;;;;;;;;;;;;;20.29;66.44;98996.23;1656798;86;21912;-85
2021/09/07 10:08:07;;;;;;;;;;;;;;;20.26;66.14;99001.87;1639505;86;25969;-85
2021/09/07 10:10:34;;;;;;;;;;;;;;;20.28;65.97;98995.92;1633967;86;24410;-85
2021/09/07 10:13:02;;;;;;;;;;;;;;;20.30;65.84;98997.91;1663118;85;20163;-85
2021/09/07 10:15:39;;;;;;;;;;;;;;;20.35;65.65;98993.48;1663909;85;25374;-85
2021/09/07 10:21:12;;;;;;;;;;;;;;;20.55;65.22;98992.81;1659275;85;26010;-85
2021/09/07 10:23:53;;;;;;;;;;;;;;;20.65;65.11;98989.05;1625388;87;24451;-85
2021/09/07 10:26:23;;;;;;;;;;;;;;;20.76;65.03;98987.45;1620548;87;20338;-84
2021/09/07 10:28:50;;;;;;;;;;;;;;;20.90;64.91;98990.00;1640111;86;24857;-84
2021/09/07 10:31:17;;;;;;;;;;;;;;;21.01;64.84;98988.89;1641024;85;22048;-85
2021/09/07 10:33:54;;;;;;;;;;;;;;;21.08;64.48;98985.44;1653681;86;26046;-84
2021/09/07 10:36:22;;;;;;;;;;;;;;;21.09;63.97;98988.45;1654670;86;24333;-85
2021/09/07 10:38:50;;;;;;;;;;;;;;;21.10;63.55;98987.95;1647555;86;20706;-84
2021/09/07 10:41:36;;;;;;;;;;;;;;;21.08;63.19;98989.44;1640022;86;25405;-84
2021/09/07 10:44:19;;;;;;;;;;;;;;;21.08;62.86;98988.10;1646002;86;23639;-85
2021/09/07 10:46:56;;;;;;;;;;;;;;;21.06;62.48;98988.75;1641805;86;26016;-85
2021/09/07 10:49:24;;;;;;;;;;;;;;;21.06;62.06;98990.08;1638195;86;25307;-85
2021/09/07 10:52:09;;;;;;;;;;;;;;;21.05;61.80;98997.75;1643259;86;20247;-85
2021/09/07 10:54:46;;;;;;;;;;;;;;;21.08;61.63;98992.09;1619269;86;24847;-84
2021/09/07 10:57:31;;;;;;;;;;;;;;;21.11;61.49;98986.96;1647547;86;23597;-84
2021/09/07 11:00:03;;;;;;;;;;;;;;;21.06;61.25;98988.75;1632362;86;21434;-84
2021/09/07 11:02:31;;;;;;;;;;;;;;;21.01;60.93;98987.06;1645277;86;24600;-84
2021/09/07 11:05:03;;;;;;;;;;;;;;;21.01;60.73;98987.06;1645136;86;20243;-84
2021/09/07 11:07:40;;;;;;;;;;;;;;;21.09;60.58;98981.79;1646408;86;24778;-83
2021/09/07 11:10:08;;;;;;;;;;;;;;;21.17;60.46;98983.17;1636397;87;22178;-84
2021/09/07 11:12:34;;;;;;;;;;;;;;;21.31;60.41;98984.89;1626177;86;26047;-83
2021/09/07 11:15:01;;;;;;;;;;;;;;;21.40;60.32;98981.25;1626896;86;25302;-84
2021/09/07 11:17:27;;;;;;;;;;;;;;;21.41;60.12;98984.25;1624591;86;20260;-84
2021/09/07 11:20:00;;;;;;;;;;;;;;;21.44;59.95;98983.95;1617518;88;20739;-84
2021/09/07 11:22:28;;;;;;;;;;;;;;;21.51;59.79;98982.28;1610965;86;22042;-84
2021/09/07 11:25:13;;;;;;;;;;;;;;;21.61;59.68;98983.80;1603788;86;26817;-85
2021/09/07 11:28:01;;;;;;;;;;;;;;;21.70;59.58;98980.67;1623940;87;24525;-84
2021/09/07 11:30:28;;;;;;;;;;;;;;;21.81;59.59;98980.35;1620651;86;20296;-84
2021/09/07 11:32:56;;;;;;;;;;;;;;;21.94;59.59;98979.37;1623044;88;24746;-84
2021/09/07 11:35:22;;;;;;;;;;;;;;;22.05;59.55;98979.05;1624726;87;22069;-84
2021/09/07 11:37:49;;;;;;;;;;;;;;;22.15;59.55;98972.73;1621510;88;26109;-84
2021/09/07 11:40:18;;;;;;;;;;;;;;;22.19;59.32;98974.06;1623040;87;24477;-85
2021/09/07 11:42:48;;;;;;;;;;;;;;;22.16;58.94;98979.22;1624327;88;20309;-85
2021/09/07 11:45:26;;;;;;;;;;;;;;;22.18;58.74;98977.72;1620647;87;24909;-84
2021/09/07 11:47:50;;;;;;;;;;;;;;;22.19;58.58;98975.39;1619853;87;22181;-85
2021/09/07 11:50:17;;;;;;;;;;;;;;;22.23;58.47;98975.38;1622571;87;25981;-84
2021/09/07 11:52:46;;;;;;;;;;;;;;;22.23;58.30;98970.05;1624400;87;24460;-85
2021/09/07 11:55:30;;;;;;;;;;;;;;;22.25;58.12;98972.89;1625048;87;20603;-85
2021/09/07 11:57:56;;;;;;;;;;;;;;;22.26;57.93;98971.87;1627384;87;24797;-84
2021/09/07 12:00:22;;;;;;;;;;;;;;;22.33;57.72;98970.20;1623464;87;20848;-84
2021/09/07 12:02:50;;;;;;;;;;;;;;;22.35;57.59;98964.71;1621853;88;26258;-84
2021/09/07 12:05:17;;;;;;;;;;;;;;;22.37;57.48;98957.36;1629575;85;25449;-84
2021/09/07 12:07:53;;;;;;;;;;;;;;;22.37;57.25;98960.86;1622303;87;20289;-85
2021/09/07 12:10:19;;;;;;;;;;;;;;;22.38;57.14;98962.53;1622106;88;24948;-85
2021/09/07 12:12:49;;;;;;;;;;;;;;;22.38;56.96;98957.20;1614434;88;20226;-85
2021/09/07 12:15:18;;;;;;;;;;;;;;;22.34;56.72;98958.55;1620132;88;26281;-86
2021/09/07 12:17:46;;;;;;;;;;;;;;;22.31;56.48;98951.39;1614931;88;24523;-86
2021/09/07 12:20:12;;;;;;;;;;;;;;;22.32;56.28;98953.03;1649373;85;20591;-88
2021/09/07 12:22:39;;;;;;;;;;;;;;;22.32;56.10;98949.03;1622139;88;24825;-88
2021/09/07 12:25:13;;;;;;;;;;;;;;;22.34;55.94;98945.70;1617428;88;22079;-88
2021/09/07 12:27:45;;;;;;;;;;;;;;;22.37;55.83;98945.35;1601026;87;26175;-87
2021/09/07 12:30:28;;;;;;;;;;;;;;;22.43;55.73;98940.18;1626581;87;24565;-88
2021/09/07 12:33:16;;;;;;;;;;;;;;;22.55;55.66;98947.33;1623495;87;20318;-89
2021/09/07 12:35:43;;;;;;;;;;;;;;;22.63;55.63;98943.82;1578675;90;24833;-84
2021/09/07 12:38:17;;;;;;;;;;;;;;;22.70;55.54;98946.11;1594954;88;22083;-86
2021/09/07 12:40:45;;;;;;;;;;;;;;;22.74;55.48;98937.65;1562480;91;26114;-85
2021/09/07 12:43:12;;;;;;;;;;;;;;;22.77;55.42;98945.30;1592196;88;24463;-86
2021/09/07 12:45:39;;;;;;;;;;;;;;;22.77;55.19;98943.96;1568925;89;20423;-87
2021/09/07 12:48:06;;;;;;;;;;;;;;;22.78;55.01;98936.80;1578998;88;21049;-86
2021/09/07 12:50:33;;;;;;;;;;;;;;;22.77;54.93;98942.63;1567858;90;22067;-86
2021/09/07 12:53:04;;;;;;;;;;;;;;;22.80;54.89;98934.27;1591205;89;26659;-85
2021/09/07 12:55:29;;;;;;;;;;;;;;;22.86;54.83;98930.08;1590939;88;24576;-87